This is the latest recevied weather packets stored in our database for station/object N4OGP-WX. If no packets are shown the sender has not sent any weather packets the latest 10 day(s).
| Time | Temp. | Humidity | Pressure | Rain* | Wind** | Luminosity | Snow |
|---|---|---|---|---|---|---|---|
| 1777586060 | 23.89° C | 42% | 1020.4 hPa | 0 mm | - | - | - |
| 1777585970 | 26.67° C | 69% | 1008.1 hPa | 0 mm | - | - | - |
| 1777585880 | 23.89° C | 42% | 1020.4 hPa | 0 mm | - | - | - |
| 1777585790 | 23.89° C | 42% | 1020.4 hPa | 0 mm | - | - | - |
| 1777585730 | 26.67° C | 68% | 1008.2 hPa | 0 mm | - | - | - |
| 1777585670 | 23.89° C | 42% | 1020.4 hPa | 0 mm | - | - | - |
| 1777585610 | 26.67° C | 68% | 1008.1 hPa | 0 mm | - | - | - |
| 1777585550 | 26.67° C | 69% | 1008.1 hPa | 0 mm | - | - | - |
| 1777585460 | 23.89° C | 42% | 1020.4 hPa | 0 mm | - | - | - |
| 1777585400 | 26.11° C | 68% | 1008.1 hPa | 0 mm | - | - | - |
| 1777585340 | 26.11° C | 69% | 1008.1 hPa | 0 mm | - | - | - |
| 1777585280 | 26.11° C | 70% | 1008 hPa | 0 mm | - | - | - |
| 1777585220 | 26.11° C | 70% | 1007.9 hPa | 0 mm | - | - | - |
| 1777585130 | 26.11° C | 69% | 1007.9 hPa | 0 mm | - | - | - |
| 1777585070 | 26.11° C | 69% | 1007.9 hPa | 0 mm | - | - | - |
| 1777585010 | 23.89° C | 42% | 1020.4 hPa | 0 mm | - | - | - |
| 1777584950 | 26.11° C | 68% | 1007.9 hPa | 0 mm | - | - | - |
| 1777584860 | 26.11° C | 68% | 1008 hPa | 0 mm | - | - | - |
| 1777584800 | 23.89° C | 42% | 1020.4 hPa | 0 mm | - | - | - |
| 1777584710 | 26.11° C | 69% | 1008.1 hPa | 0 mm | - | - | - |
| 1777584650 | 23.89° C | 42% | 1020.4 hPa | 0 mm | - | - | - |
| 1777584590 | 26.11° C | 70% | 1008.1 hPa | 0 mm | - | - | - |
| 1777584530 | 23.89° C | 42% | 1020.4 hPa | 0 mm | - | - | - |
| 1777584440 | 23.89° C | 42% | 1020.4 hPa | 0 mm | - | - | - |
| 1777584380 | 25.56° C | 71% | 1008.1 hPa | 0 mm | - | - | - |
* Rain latest hour (hover to see other rain measurements)
** Current wind speed in m/s (hover to see current wind gust speed)